createdAt,value
2023-05-06T00:00:04.296Z,92.84
2023-05-06T00:02:32.357Z,92.70
2023-05-06T00:05:00.940Z,91.37
2023-05-06T00:07:28.810Z,91.33
2023-05-06T00:09:58.184Z,90.72
2023-05-06T00:12:26.036Z,90.02
2023-05-06T00:14:53.875Z,90.10
2023-05-06T00:17:21.713Z,89.88
2023-05-06T00:19:49.662Z,90.42
2023-05-06T00:22:17.439Z,91.53
2023-05-06T00:24:45.322Z,92.32
2023-05-06T00:27:14.565Z,92.33
2023-05-06T00:29:42.450Z,92.44
2023-05-06T00:32:10.280Z,92.95
2023-05-06T00:34:38.209Z,92.82
2023-05-06T00:37:06.188Z,92.58
2023-05-06T00:39:34.568Z,92.22
2023-05-06T00:42:02.795Z,92.20
2023-05-06T00:44:32.901Z,92.10
2023-05-06T00:47:01.867Z,92.50
2023-05-06T00:49:31.036Z,92.30
2023-05-06T00:52:01.274Z,92.09
2023-05-06T00:54:29.826Z,91.78
2023-05-06T00:56:57.893Z,92.07
2023-05-06T00:59:25.724Z,91.81
2023-05-06T01:01:55.000Z,92.35
2023-05-06T01:04:24.105Z,92.35
2023-05-06T01:06:59.654Z,92.10
2023-05-06T01:09:33.942Z,92.68
2023-05-06T01:12:11.114Z,93.22
2023-05-06T01:14:46.522Z,93.53
2023-05-06T01:17:19.724Z,93.88
2023-05-06T01:19:50.193Z,93.45
2023-05-06T01:22:19.546Z,93.58
2023-05-06T01:24:48.756Z,93.36
2023-05-06T01:27:18.328Z,93.64
2023-05-06T01:29:48.321Z,93.37
2023-05-06T01:32:32.334Z,92.92
2023-05-06T01:35:11.892Z,92.87
2023-05-06T01:37:46.091Z,93.07
2023-05-06T01:40:17.339Z,92.91
2023-05-06T01:42:48.755Z,93.18
2023-05-06T01:45:17.362Z,93.96
2023-05-06T01:47:46.870Z,94.29
2023-05-06T01:50:15.232Z,94.71
2023-05-06T01:52:43.030Z,94.93
2023-05-06T01:55:11.392Z,94.48
2023-05-06T01:57:40.842Z,94.78
2023-05-06T02:00:10.331Z,94.38
2023-05-06T02:02:38.278Z,94.84
2023-05-06T02:05:07.284Z,94.16
2023-05-06T02:07:35.270Z,93.82
2023-05-06T02:10:03.134Z,94.39
2023-05-06T02:12:30.946Z,94.15
2023-05-06T02:15:00.113Z,94.28
2023-05-06T02:17:27.995Z,94.82
2023-05-06T02:19:55.860Z,94.54
2023-05-06T02:22:23.727Z,94.46
2023-05-06T02:24:51.564Z,94.70
2023-05-06T02:27:19.378Z,94.49
2023-05-06T02:29:47.476Z,94.44
2023-05-06T02:32:16.634Z,94.01
2023-05-06T02:34:44.482Z,93.98
2023-05-06T02:37:12.374Z,93.46
2023-05-06T02:39:40.225Z,93.48
2023-05-06T02:42:08.023Z,93.16
2023-05-06T02:44:35.856Z,93.15
2023-05-06T02:47:03.592Z,93.35
2023-05-06T02:49:32.887Z,93.52
2023-05-06T02:52:00.610Z,93.19
2023-05-06T02:54:28.397Z,93.65
2023-05-06T02:56:56.250Z,93.81
2023-05-06T02:59:24.703Z,93.70
2023-05-06T03:01:52.514Z,93.42
2023-05-06T03:04:21.252Z,93.00
2023-05-06T03:06:50.743Z,92.87
2023-05-06T03:09:18.503Z,93.43
2023-05-06T03:11:46.290Z,93.59
2023-05-06T03:14:14.084Z,93.38
2023-05-06T03:16:41.953Z,93.42
2023-05-06T03:19:09.855Z,93.88
2023-05-06T03:21:37.688Z,94.04
2023-05-06T03:24:07.485Z,93.85
2023-05-06T03:26:35.308Z,94.75
2023-05-06T03:29:03.088Z,94.82
2023-05-06T03:31:30.998Z,94.92
2023-05-06T03:33:58.931Z,94.96
2023-05-06T03:36:27.958Z,94.67
2023-05-06T03:38:55.772Z,94.82
2023-05-06T03:41:25.819Z,94.93
2023-05-06T03:43:55.617Z,94.58
2023-05-06T03:46:23.482Z,94.63
2023-05-06T03:48:51.293Z,94.45
2023-05-06T03:51:19.236Z,94.59
2023-05-06T03:53:47.079Z,93.93
2023-05-06T03:56:14.762Z,93.89
2023-05-06T03:58:44.437Z,93.44
2023-05-06T04:01:12.231Z,92.96
2023-05-06T04:03:40.151Z,93.35
2023-05-06T04:06:08.101Z,94.02
2023-05-06T04:08:35.964Z,94.61
2023-05-06T04:11:05.885Z,94.45
2023-05-06T04:13:33.859Z,94.50
2023-05-06T04:16:04.046Z,95.74
2023-05-06T04:18:32.829Z,95.66
2023-05-06T04:21:01.014Z,96.02
2023-05-06T04:23:28.957Z,96.74
2023-05-06T04:25:58.075Z,96.96
2023-05-06T04:28:25.979Z,97.43
2023-05-06T04:30:53.930Z,97.61
2023-05-06T04:33:25.086Z,97.64
2023-05-06T04:35:54.829Z,98.33
2023-05-06T04:38:25.709Z,98.06
2023-05-06T04:40:53.959Z,97.96
2023-05-06T04:43:21.677Z,98.05
2023-05-06T04:45:50.263Z,98.02
2023-05-06T04:48:18.797Z,98.19
2023-05-06T04:50:47.964Z,98.36
2023-05-06T04:53:16.387Z,98.67
2023-05-06T04:55:44.614Z,98.64
2023-05-06T04:58:12.438Z,99.38
2023-05-06T05:00:40.734Z,99.29
2023-05-06T05:03:08.616Z,98.88
2023-05-06T05:05:36.542Z,98.97
2023-05-06T05:08:06.313Z,98.63
2023-05-06T05:10:34.161Z,98.09
2023-05-06T05:13:02.019Z,98.00
2023-05-06T05:15:30.098Z,98.34
2023-05-06T05:17:57.984Z,98.39
2023-05-06T05:20:25.750Z,97.87
2023-05-06T05:22:53.494Z,98.34
2023-05-06T05:25:22.672Z,97.44
2023-05-06T05:27:50.456Z,97.18
2023-05-06T05:30:18.419Z,97.27
2023-05-06T05:32:46.397Z,97.31
2023-05-06T05:35:15.692Z,96.95
2023-05-06T05:37:43.599Z,97.56
2023-05-06T05:40:11.803Z,96.87
2023-05-06T05:42:41.177Z,96.52
2023-05-06T05:45:10.679Z,96.24
2023-05-06T05:47:38.673Z,96.15
2023-05-06T05:50:07.702Z,95.59
2023-05-06T05:52:35.501Z,95.95
2023-05-06T05:55:03.250Z,95.85
2023-05-06T05:57:31.100Z,95.88
2023-05-06T06:00:00.373Z,95.83
2023-05-06T06:02:28.234Z,96.34
2023-05-06T06:04:56.230Z,96.20
2023-05-06T06:07:24.258Z,95.81
2023-05-06T06:09:52.061Z,95.94
2023-05-06T06:12:19.829Z,95.87
2023-05-06T06:14:48.528Z,96.08
2023-05-06T06:17:17.980Z,95.50
2023-05-06T06:19:47.373Z,95.34
2023-05-06T06:22:15.184Z,94.33
2023-05-06T06:24:42.959Z,93.48
2023-05-06T06:27:11.022Z,93.54
2023-05-06T06:29:38.833Z,93.40
2023-05-06T06:32:07.663Z,92.98
2023-05-06T06:34:36.935Z,92.62
2023-05-06T06:37:06.238Z,91.38
2023-05-06T06:39:35.911Z,90.66
2023-05-06T06:42:04.355Z,89.17
2023-05-06T06:44:32.135Z,87.75
2023-05-06T06:46:59.901Z,87.22
2023-05-06T06:49:28.478Z,87.40
2023-05-06T06:51:57.824Z,87.15
2023-05-06T06:54:25.807Z,86.65
2023-05-06T06:56:55.852Z,86.03
2023-05-06T06:59:23.512Z,86.14
2023-05-06T07:01:52.902Z,86.16
2023-05-06T07:04:20.695Z,85.97
2023-05-06T07:06:48.385Z,85.69
2023-05-06T07:09:17.511Z,85.43
2023-05-06T07:11:45.192Z,85.00
2023-05-06T07:14:13.070Z,83.70
2023-05-06T07:16:40.884Z,84.56
2023-05-06T07:19:08.780Z,84.02
2023-05-06T07:21:36.544Z,83.37
2023-05-06T07:24:04.492Z,82.16
2023-05-06T07:26:36.579Z,81.87
2023-05-06T07:29:05.629Z,81.20
2023-05-06T07:31:33.583Z,80.68
2023-05-06T07:34:01.904Z,79.83
2023-05-06T07:36:30.934Z,78.41
2023-05-06T07:38:58.694Z,78.54
2023-05-06T07:41:27.151Z,76.79
2023-05-06T07:43:56.284Z,75.37
2023-05-06T07:46:24.082Z,75.76
2023-05-06T07:48:51.803Z,75.12
2023-05-06T07:51:19.550Z,74.97
2023-05-06T07:53:47.276Z,75.69
2023-05-06T07:56:15.063Z,74.47
2023-05-06T07:58:42.834Z,72.83
2023-05-06T08:01:12.077Z,72.25
2023-05-06T08:03:39.972Z,71.91
2023-05-06T08:06:08.472Z,69.70
2023-05-06T08:08:36.208Z,69.46
2023-05-06T08:11:03.898Z,69.40
2023-05-06T08:13:33.468Z,69.93
2023-05-06T08:16:02.320Z,68.13
2023-05-06T08:18:31.869Z,67.01
2023-05-06T08:20:59.825Z,66.46
2023-05-06T08:23:27.718Z,65.68
2023-05-06T08:25:55.539Z,63.09
2023-05-06T08:28:24.653Z,62.41
2023-05-06T08:30:53.052Z,64.08
2023-05-06T08:33:21.077Z,61.03
2023-05-06T08:35:50.934Z,60.46
2023-05-06T08:38:18.809Z,61.40
2023-05-06T08:40:46.720Z,58.93
2023-05-06T08:43:15.957Z,58.12
2023-05-06T08:45:43.933Z,58.66
2023-05-06T08:48:11.967Z,59.75
2023-05-06T08:50:43.170Z,59.88
2023-05-06T08:53:13.846Z,60.66
2023-05-06T08:55:42.453Z,60.62
2023-05-06T08:58:12.773Z,59.13
2023-05-06T09:00:40.845Z,59.10
2023-05-06T09:03:08.724Z,56.99
2023-05-06T09:05:36.975Z,58.46
2023-05-06T09:08:04.913Z,57.12
2023-05-06T09:10:39.116Z,56.26
2023-05-06T09:13:06.973Z,55.13
2023-05-06T09:15:41.019Z,55.24
2023-05-06T09:18:09.169Z,54.59
2023-05-06T09:20:41.466Z,55.16
2023-05-06T09:23:09.874Z,55.40
2023-05-06T09:25:39.520Z,54.76
2023-05-06T09:28:08.944Z,54.80
2023-05-06T09:30:40.853Z,53.28
2023-05-06T09:33:09.190Z,52.66
2023-05-06T09:35:39.065Z,52.06
2023-05-06T09:38:07.534Z,51.37
2023-05-06T09:40:36.130Z,51.88
2023-05-06T09:43:06.157Z,51.43
2023-05-06T09:45:34.581Z,50.45
2023-05-06T09:48:02.528Z,49.84
2023-05-06T09:50:30.593Z,48.34
2023-05-06T09:53:03.713Z,47.84
2023-05-06T09:55:32.100Z,47.36
2023-05-06T09:58:01.922Z,46.90
2023-05-06T10:00:32.531Z,45.89
2023-05-06T10:03:00.748Z,45.28
2023-05-06T10:05:30.084Z,44.68
2023-05-06T10:07:58.420Z,45.24
2023-05-06T10:10:28.314Z,45.00
2023-05-06T10:12:56.814Z,44.47
2023-05-06T10:15:27.092Z,44.14
2023-05-06T10:17:56.886Z,43.66
2023-05-06T10:20:27.701Z,43.23
2023-05-06T10:23:04.604Z,43.62
2023-05-06T10:25:37.983Z,43.65
2023-05-06T10:28:09.232Z,43.35
2023-05-06T10:30:42.116Z,43.42
2023-05-06T10:33:12.886Z,43.07
2023-05-06T10:35:49.320Z,42.54
2023-05-06T10:38:24.667Z,41.16
2023-05-06T10:40:53.466Z,42.00
2023-05-06T10:43:25.747Z,41.51
2023-05-06T10:46:06.858Z,40.85
2023-05-06T10:48:37.746Z,40.96
2023-05-06T10:51:25.934Z,42.36
2023-05-06T10:54:02.400Z,41.89
2023-05-06T10:56:32.007Z,42.15
2023-05-06T10:59:08.202Z,40.76
2023-05-06T11:01:37.154Z,39.78
2023-05-06T11:04:12.505Z,40.39
2023-05-06T11:06:42.333Z,40.34
2023-05-06T11:09:17.965Z,41.48
2023-05-06T11:11:51.003Z,41.14
2023-05-06T11:14:30.751Z,41.55
2023-05-06T11:16:59.848Z,41.83
2023-05-06T11:19:31.207Z,41.81
2023-05-06T11:22:00.193Z,41.86
2023-05-06T11:24:29.241Z,40.67
2023-05-06T11:26:59.403Z,42.23
2023-05-06T11:29:27.771Z,42.32
2023-05-06T11:31:56.461Z,42.44
2023-05-06T11:34:30.443Z,42.85
2023-05-06T11:37:03.497Z,43.08
2023-05-06T11:39:38.714Z,42.90
2023-05-06T11:42:08.585Z,42.58
2023-05-06T11:44:37.881Z,43.22
2023-05-06T11:47:07.479Z,42.70
2023-05-06T11:49:41.206Z,42.58
2023-05-06T11:52:09.815Z,42.67
2023-05-06T11:54:40.274Z,42.78
2023-05-06T11:57:08.278Z,43.16
2023-05-06T11:59:38.378Z,42.96
2023-05-06T12:02:07.502Z,43.44
2023-05-06T12:04:40.576Z,43.59
2023-05-06T12:07:08.991Z,43.12
2023-05-06T12:09:37.691Z,43.06
2023-05-06T12:12:06.573Z,43.09
2023-05-06T12:14:35.296Z,44.74
2023-05-06T12:17:03.557Z,43.23
2023-05-06T12:19:31.922Z,42.89
2023-05-06T12:22:19.533Z,43.43
2023-05-06T12:24:47.933Z,42.48
2023-05-06T12:27:15.787Z,42.63
2023-05-06T12:29:53.788Z,42.72
2023-05-06T12:32:21.943Z,42.16
2023-05-06T12:34:49.782Z,42.38
2023-05-06T12:37:27.067Z,43.30
2023-05-06T12:39:58.295Z,41.79
2023-05-06T12:42:27.032Z,41.78
2023-05-06T12:44:54.736Z,43.22
2023-05-06T12:47:23.775Z,42.51
2023-05-06T12:49:52.889Z,41.98
2023-05-06T12:52:21.844Z,41.98
2023-05-06T12:54:52.819Z,42.50
2023-05-06T12:57:21.392Z,42.85
2023-05-06T12:59:49.936Z,42.81
2023-05-06T13:02:17.957Z,42.64
2023-05-06T13:04:47.201Z,41.80
2023-05-06T13:07:15.093Z,42.23
2023-05-06T13:09:44.546Z,42.40
2023-05-06T13:12:13.897Z,42.25
2023-05-06T13:14:41.632Z,41.97
2023-05-06T13:17:09.721Z,41.35
2023-05-06T13:19:37.747Z,41.50
2023-05-06T13:22:05.560Z,41.97
2023-05-06T13:24:33.396Z,42.04
2023-05-06T13:27:01.568Z,40.87
2023-05-06T13:29:30.903Z,41.35
2023-05-06T13:31:59.176Z,40.35
2023-05-06T13:34:27.208Z,40.28
2023-05-06T13:36:56.599Z,40.23
2023-05-06T13:39:25.058Z,40.34
2023-05-06T13:41:54.149Z,39.95
2023-05-06T13:44:22.596Z,39.48
2023-05-06T13:46:52.526Z,40.05
2023-05-06T13:49:20.405Z,39.93
2023-05-06T13:51:48.347Z,40.47
2023-05-06T13:54:16.162Z,39.74
2023-05-06T13:56:43.965Z,39.92
2023-05-06T13:59:14.036Z,40.45
2023-05-06T14:01:42.629Z,39.40
2023-05-06T14:04:12.339Z,39.47
2023-05-06T14:06:40.620Z,39.24
2023-05-06T14:09:08.592Z,39.87
2023-05-06T14:11:36.325Z,39.30
2023-05-06T14:14:04.433Z,39.39
2023-05-06T14:16:32.254Z,38.62
2023-05-06T14:19:00.514Z,38.76
2023-05-06T14:21:29.678Z,38.28
2023-05-06T14:23:57.510Z,38.67
2023-05-06T14:26:25.733Z,37.85
2023-05-06T14:28:53.488Z,38.20
2023-05-06T14:31:21.244Z,38.06
2023-05-06T14:33:49.070Z,38.44
2023-05-06T14:36:19.516Z,37.70
2023-05-06T14:38:48.702Z,36.52
2023-05-06T14:41:16.569Z,36.51
2023-05-06T14:43:44.340Z,36.97
2023-05-06T14:46:14.392Z,37.93
2023-05-06T14:48:42.635Z,35.68
2023-05-06T14:51:10.351Z,35.54
2023-05-06T14:53:38.030Z,36.08
2023-05-06T14:56:09.027Z,36.04
2023-05-06T14:58:37.038Z,35.29
2023-05-06T15:01:04.927Z,35.26
2023-05-06T15:03:32.864Z,36.17
2023-05-06T15:06:00.867Z,36.80
2023-05-06T15:08:28.718Z,35.42
2023-05-06T15:10:56.526Z,36.08
2023-05-06T15:13:25.802Z,37.32
2023-05-06T15:15:53.536Z,36.45
2023-05-06T15:18:21.219Z,38.35
2023-05-06T15:20:48.884Z,38.42
2023-05-06T15:23:17.822Z,39.04
2023-05-06T15:25:45.570Z,38.46
2023-05-06T15:28:13.424Z,38.83
2023-05-06T15:30:42.613Z,38.71
2023-05-06T15:33:10.394Z,38.91
2023-05-06T15:35:38.203Z,39.30
2023-05-06T15:38:06.093Z,39.31
2023-05-06T15:40:33.867Z,39.33
2023-05-06T15:43:01.660Z,40.90
2023-05-06T15:45:29.408Z,41.13
2023-05-06T15:47:58.667Z,41.14
2023-05-06T15:52:59.353Z,40.42
2023-05-06T15:55:27.318Z,41.27
2023-05-06T15:57:55.842Z,42.08
2023-05-06T16:00:24.133Z,42.43
2023-05-06T16:02:51.938Z,40.61
2023-05-06T16:05:21.078Z,42.27
2023-05-06T16:07:49.289Z,41.44
2023-05-06T16:10:17.041Z,41.16
2023-05-06T16:12:44.956Z,41.44
2023-05-06T16:15:12.829Z,40.48
2023-05-06T16:17:40.791Z,41.55
2023-05-06T16:20:10.349Z,40.92
2023-05-06T16:22:40.896Z,40.77
2023-05-06T16:25:09.162Z,40.59
2023-05-06T16:27:36.913Z,40.37
2023-05-06T16:30:05.245Z,42.37
2023-05-06T16:32:33.087Z,39.92
2023-05-06T16:35:00.874Z,40.50
2023-05-06T16:37:29.121Z,40.16
2023-05-06T16:39:58.408Z,40.19
2023-05-06T16:42:26.118Z,40.77
2023-05-06T16:44:54.226Z,40.07
2023-05-06T16:47:24.176Z,40.41
2023-05-06T16:49:52.305Z,40.69
2023-05-06T16:52:20.720Z,40.40
2023-05-06T16:54:48.578Z,40.39
2023-05-06T16:57:17.748Z,41.05
2023-05-06T16:59:45.600Z,41.22
2023-05-06T17:02:13.379Z,40.87
2023-05-06T17:04:41.994Z,40.69
2023-05-06T17:07:11.127Z,40.44
2023-05-06T17:09:39.451Z,41.30
2023-05-06T17:12:07.896Z,41.13
2023-05-06T17:14:37.176Z,41.30
2023-05-06T17:17:05.510Z,41.07
2023-05-06T17:19:34.092Z,41.28
2023-05-06T17:22:01.838Z,41.03
2023-05-06T17:24:29.549Z,40.94
2023-05-06T17:26:57.333Z,41.19
2023-05-06T17:29:25.145Z,41.42
2023-05-06T17:31:54.389Z,42.23
2023-05-06T17:36:55.074Z,42.67
2023-05-06T17:39:22.810Z,42.41
2023-05-06T17:41:50.616Z,42.24
2023-05-06T17:44:18.493Z,42.76
2023-05-06T17:46:46.619Z,43.15
2023-05-06T17:49:15.804Z,43.55
2023-05-06T17:51:45.570Z,43.88
2023-05-06T17:54:13.487Z,44.00
2023-05-06T17:56:41.420Z,44.70
2023-05-06T17:59:09.597Z,44.74
2023-05-06T18:01:37.668Z,45.25
2023-05-06T18:04:05.810Z,45.67
2023-05-06T18:06:35.089Z,45.84
2023-05-06T18:09:03.192Z,46.03
2023-05-06T18:11:31.071Z,46.11
2023-05-06T18:13:58.809Z,46.19
2023-05-06T18:16:26.574Z,46.52
2023-05-06T18:18:54.373Z,47.51
2023-05-06T18:21:22.331Z,47.68
2023-05-06T18:23:53.590Z,48.14
2023-05-06T18:26:43.447Z,48.11
2023-05-06T18:29:12.320Z,49.01
2023-05-06T18:31:40.096Z,49.16
2023-05-06T18:34:07.979Z,49.36
2023-05-06T18:36:36.518Z,49.03
2023-05-06T18:39:06.274Z,49.36
2023-05-06T18:41:34.144Z,49.39
2023-05-06T18:44:03.298Z,50.04
2023-05-06T18:46:31.084Z,50.17
2023-05-06T18:48:59.177Z,50.63
2023-05-06T18:51:27.494Z,50.81
2023-05-06T18:53:55.344Z,51.16
2023-05-06T18:56:24.603Z,51.22
2023-05-06T18:58:52.353Z,51.52
2023-05-06T19:01:20.088Z,51.49
2023-05-06T19:03:47.881Z,52.03
2023-05-06T19:06:15.747Z,52.26
2023-05-06T19:08:43.548Z,52.53
2023-05-06T19:11:16.062Z,52.63
2023-05-06T19:13:46.287Z,53.34
2023-05-06T19:16:14.888Z,53.28
2023-05-06T19:18:42.742Z,53.52
2023-05-06T19:21:10.858Z,53.77
2023-05-06T19:23:38.703Z,54.48
2023-05-06T19:26:06.977Z,55.22
2023-05-06T19:28:35.044Z,55.30
2023-05-06T19:31:09.277Z,56.18
2023-05-06T19:33:37.254Z,56.48
2023-05-06T19:36:06.080Z,57.02
2023-05-06T19:38:34.058Z,57.05
2023-05-06T19:41:02.099Z,57.36
2023-05-06T19:43:29.855Z,57.86
2023-05-06T19:45:57.823Z,57.42
2023-05-06T19:48:26.985Z,57.72
2023-05-06T19:50:54.811Z,57.59
2023-05-06T19:53:24.108Z,57.69
2023-05-06T19:55:52.016Z,58.06
2023-05-06T19:58:19.850Z,58.40
2023-05-06T20:00:47.647Z,58.28
2023-05-06T20:03:15.628Z,58.65
2023-05-06T20:05:44.893Z,58.89
2023-05-06T20:08:12.758Z,59.19
2023-05-06T20:10:40.525Z,59.49
2023-05-06T20:13:08.352Z,60.17
2023-05-06T20:15:36.518Z,60.79
2023-05-06T20:18:04.661Z,61.06
2023-05-06T20:20:34.475Z,61.18
2023-05-06T20:23:04.209Z,61.81
2023-05-06T20:25:32.163Z,62.02
2023-05-06T20:28:00.432Z,62.79
2023-05-06T20:30:28.255Z,62.89
2023-05-06T20:32:56.286Z,63.15
2023-05-06T20:35:24.338Z,62.83
2023-05-06T20:37:52.033Z,63.41
2023-05-06T20:40:21.452Z,63.84
2023-05-06T20:42:49.296Z,63.99
2023-05-06T20:45:18.127Z,63.95
2023-05-06T20:47:45.987Z,64.28
2023-05-06T20:50:17.011Z,64.63
2023-05-06T20:52:46.070Z,65.03
2023-05-06T20:55:14.758Z,65.91
2023-05-06T20:57:47.008Z,65.69
2023-05-06T21:00:14.925Z,65.92
2023-05-06T21:02:42.792Z,66.54
2023-05-06T21:05:11.739Z,66.64
2023-05-06T21:07:39.830Z,66.67
2023-05-06T21:10:08.228Z,67.09
2023-05-06T21:12:36.032Z,67.12
2023-05-06T21:15:06.241Z,67.73
2023-05-06T21:17:34.073Z,68.76
2023-05-06T21:20:04.070Z,67.71
2023-05-06T21:22:32.701Z,66.99
2023-05-06T21:25:01.035Z,67.04
2023-05-06T21:27:28.740Z,67.29
2023-05-06T21:29:56.683Z,67.44
2023-05-06T21:32:25.938Z,67.37
2023-05-06T21:34:53.758Z,67.71
2023-05-06T21:37:21.508Z,67.98
2023-05-06T21:39:49.227Z,68.06
2023-05-06T21:42:17.019Z,68.30
2023-05-06T21:44:44.708Z,68.42
2023-05-06T21:47:12.522Z,68.90
2023-05-06T21:49:41.666Z,69.21
2023-05-06T21:52:09.403Z,69.86
2023-05-06T21:54:37.124Z,69.91
2023-05-06T21:57:07.938Z,70.44
2023-05-06T21:59:36.355Z,70.73
2023-05-06T22:02:04.358Z,71.13
2023-05-06T22:04:32.164Z,71.82
2023-05-06T22:07:01.286Z,71.81
2023-05-06T22:09:29.071Z,72.61
2023-05-06T22:11:56.789Z,72.75
2023-05-06T22:14:30.204Z,72.81
2023-05-06T22:17:01.727Z,73.08
2023-05-06T22:19:29.501Z,73.81
2023-05-06T22:21:57.757Z,73.64
2023-05-06T22:24:28.291Z,74.08
2023-05-06T22:26:56.057Z,74.68
2023-05-06T22:29:23.786Z,74.49
2023-05-06T22:31:51.596Z,74.76
2023-05-06T22:34:19.425Z,75.12
2023-05-06T22:36:47.518Z,75.27
2023-05-06T22:39:15.260Z,75.59
2023-05-06T22:41:44.617Z,75.86
2023-05-06T22:44:13.716Z,76.12
2023-05-06T22:46:41.570Z,76.38
2023-05-06T22:49:09.726Z,76.32
2023-05-06T22:51:37.560Z,76.36
2023-05-06T22:54:05.489Z,76.50
2023-05-06T22:56:33.280Z,76.87
2023-05-06T22:59:02.452Z,77.10
2023-05-06T23:01:32.093Z,77.35
2023-05-06T23:04:00.614Z,77.48
2023-05-06T23:06:28.734Z,77.63
2023-05-06T23:08:56.578Z,77.99
2023-05-06T23:11:24.404Z,78.13
2023-05-06T23:13:52.279Z,78.45
2023-05-06T23:16:21.651Z,78.21
2023-05-06T23:18:49.413Z,78.46
2023-05-06T23:21:17.063Z,78.34
2023-05-06T23:23:44.875Z,78.87
2023-05-06T23:26:12.662Z,78.75
2023-05-06T23:28:40.340Z,78.89
2023-05-06T23:31:08.153Z,78.68
2023-05-06T23:33:37.318Z,78.85
2023-05-06T23:36:05.331Z,78.61
2023-05-06T23:38:33.130Z,78.93
2023-05-06T23:41:00.847Z,78.82
2023-05-06T23:43:28.604Z,78.56
2023-05-06T23:45:56.401Z,78.52
2023-05-06T23:48:24.149Z,78.53
2023-05-06T23:50:54.483Z,78.85
2023-05-06T23:53:22.401Z,78.63
2023-05-06T23:55:50.805Z,78.76
2023-05-06T23:58:18.597Z,79.09
